Time;durP1;ratioP1;P1;durP2;ratioP2;P2;SDS_P1;SDS_P2;PMS_P1;PMS_P2;Temp;Humidity;BMP_temperature;BMP_pressure;BME280_temperature;BME280_humidity;BME280_pressure;Samples;Min_cycle;Max_cycle;Signal;HPM_P1;HPM_P2
2023/06/23 00:00:00;;;;;;;14.23;10.45;;;;;;;24.06;100.00;100196.69;5565780;32;33882;-70
2023/06/23 00:03:18;;;;;;;13.50;10.70;;;;;;;24.13;100.00;100187.25;5566700;32;34122;-71
2023/06/23 00:06:24;;;;;;;16.30;11.05;;;;;;;24.07;100.00;100187.47;5566405;32;35380;-71
2023/06/23 00:09:31;;;;;;;12.68;10.60;;;;;;;23.89;100.00;100180.56;5566166;32;34520;-71
2023/06/23 00:12:41;;;;;;;19.05;11.77;;;;;;;23.75;100.00;100182.09;5566147;32;34872;-71
2023/06/23 00:15:52;;;;;;;18.15;10.38;;;;;;;23.65;100.00;100199.06;5566160;32;34213;-71
2023/06/23 00:18:58;;;;;;;15.30;10.40;;;;;;;23.58;100.00;100200.34;5566148;32;33886;-71
2023/06/23 00:22:06;;;;;;;15.32;10.57;;;;;;;23.59;100.00;100194.69;5566026;32;34742;-70
2023/06/23 00:25:14;;;;;;;17.27;10.95;;;;;;;23.65;100.00;100195.53;5566211;32;34020;-71
2023/06/23 00:28:22;;;;;;;12.65;10.45;;;;;;;23.56;100.00;100188.97;5565935;32;33873;-71
2023/06/23 00:31:31;;;;;;;17.27;10.47;;;;;;;23.53;100.00;100189.50;5565851;32;34705;-71
2023/06/23 00:34:40;;;;;;;14.18;11.02;;;;;;;23.44;100.00;100208.03;5565816;32;34109;-72
2023/06/23 00:37:47;;;;;;;16.15;10.82;;;;;;;23.38;100.00;100204.47;5565933;32;33868;-71
2023/06/23 00:40:59;;;;;;;15.55;10.32;;;;;;;23.30;100.00;100201.41;5565033;32;34751;-71
2023/06/23 00:44:07;;;;;;;14.35;10.52;;;;;;;23.24;100.00;100211.34;5565806;32;34160;-71
2023/06/23 00:47:16;;;;;;;;;;;;;;;23.28;100.00;100209.81;5566106;32;34248;-71
2023/06/23 00:50:29;;;;;;;16.15;10.02;;;;;;;23.22;100.00;100197.28;5565666;32;34296;-71
2023/06/23 00:53:42;;;;;;;13.75;10.00;;;;;;;23.62;100.00;100185.25;5565939;32;34376;-70
2023/06/23 00:56:50;;;;;;;17.37;10.82;;;;;;;23.60;100.00;100180.06;5568561;32;34301;-71
2023/06/23 00:59:58;;;;;;;18.02;10.57;;;;;;;23.42;100.00;100182.31;5568287;32;34113;-71
2023/06/23 01:03:04;;;;;;;11.77;10.30;;;;;;;23.29;100.00;100181.62;5568391;32;33916;-70
2023/06/23 01:06:16;;;;;;;13.75;10.68;;;;;;;23.21;100.00;100176.69;5568064;32;34776;-70
2023/06/23 01:09:32;;;;;;;14.80;10.57;;;;;;;23.36;100.00;100178.72;5568069;32;34723;-70
2023/06/23 01:13:14;;;;;;;15.10;10.27;;;;;;;23.24;100.00;100175.34;5568167;32;34493;-71
2023/06/23 01:16:30;;;;;;;13.07;10.43;;;;;;;23.21;100.00;100175.87;5568045;32;34009;-70
2023/06/23 01:20:16;;;;;;;15.27;10.70;;;;;;;23.30;100.00;100177.03;5567336;32;34091;-70
2023/06/23 01:23:50;;;;;;;15.48;11.05;;;;;;;23.16;100.00;100182.06;5568041;32;34390;-71
2023/06/23 01:27:24;;;;;;;17.48;10.75;;;;;;;23.05;100.00;100169.47;5568055;32;34056;-71
2023/06/23 01:30:43;;;;;;;17.50;10.35;;;;;;;23.11;100.00;100168.47;5544374;32;34732;-71
2023/06/23 01:33:58;;;;;;;15.80;11.50;;;;;;;23.11;100.00;100160.34;5567988;32;34205;-71
2023/06/23 01:37:11;;;;;;;17.80;11.20;;;;;;;23.19;100.00;100154.47;5567919;32;34747;-70
2023/06/23 01:40:22;;;;;;;17.15;10.98;;;;;;;23.44;100.00;100153.88;5567853;32;34060;-71
2023/06/23 01:43:33;;;;;;;14.32;10.68;;;;;;;23.26;100.00;100162.37;5567977;32;33907;-71
2023/06/23 01:46:50;;;;;;;17.35;10.48;;;;;;;23.13;100.00;100160.94;5567810;32;35028;-71
2023/06/23 01:50:04;;;;;;;13.40;10.52;;;;;;;22.99;100.00;100170.53;5567047;32;34619;-72
2023/06/23 01:53:20;;;;;;;14.85;11.05;;;;;;;22.85;100.00;100172.78;5567664;32;33861;-71
2023/06/23 01:56:30;;;;;;;16.67;11.20;;;;;;;22.79;100.00;100181.09;5567653;32;34142;-71
2023/06/23 01:59:39;;;;;;;17.27;10.53;;;;;;;22.71;100.00;100195.03;5567741;32;34542;-71
2023/06/23 02:02:54;;;;;;;16.45;10.90;;;;;;;22.65;100.00;100199.56;5566936;32;34140;-71
2023/06/23 02:06:05;;;;;;;13.95;10.73;;;;;;;22.62;100.00;100202.75;5567163;32;34129;-71
2023/06/23 02:09:17;;;;;;;15.52;10.80;;;;;;;22.60;100.00;100194.09;5567564;32;34118;-71
2023/06/23 02:12:24;;;;;;;15.70;10.57;;;;;;;22.63;100.00;100195.47;5567542;32;33974;-71
2023/06/23 02:15:33;;;;;;;13.80;10.55;;;;;;;22.65;100.00;100204.16;5567447;32;34095;-71
2023/06/23 02:18:53;;;;;;;17.45;10.25;;;;;;;22.68;100.00;100204.47;5567474;32;34222;-71
2023/06/23 02:22:03;;;;;;;15.52;10.30;;;;;;;22.76;100.00;100209.44;5567500;32;34210;-71
2023/06/23 02:25:14;;;;;;;16.83;10.50;;;;;;;22.87;100.00;100215.81;5566702;32;34024;-71
2023/06/23 02:28:22;;;;;;;15.35;9.63;;;;;;;22.86;100.00;100196.06;5567467;32;33963;-71
2023/06/23 02:31:34;;;;;;;14.00;9.63;;;;;;;22.85;100.00;100190.91;5567364;32;35134;-71
2023/06/23 02:34:42;;;;;;;18.50;10.77;;;;;;;22.81;100.00;100190.59;5567393;32;34077;-71
2023/06/23 02:37:58;;;;;;;14.82;9.85;;;;;;;22.76;100.00;100187.81;5567542;32;33872;-71
2023/06/23 02:41:09;;;;;;;15.05;10.32;;;;;;;22.71;100.00;100201.28;5567439;32;34882;-71
2023/06/23 02:44:33;;;;;;;15.10;11.55;;;;;;;22.69;100.00;100187.19;5567412;32;34701;-71
2023/06/23 02:47:44;;;;;;;18.42;10.55;;;;;;;22.68;100.00;100182.00;5567286;32;34077;-71
2023/06/23 02:50:56;;;;;;;13.60;10.98;;;;;;;22.68;100.00;100193.66;5567352;32;34878;-71
2023/06/23 02:54:11;;;;;;;16.65;11.10;;;;;;;22.65;100.00;100182.53;5567305;32;34243;-71
2023/06/23 02:57:21;;;;;;;13.23;10.93;;;;;;;22.59;100.00;100180.81;5567293;32;35554;-71
2023/06/23 03:00:30;;;;;;;16.37;11.45;;;;;;;22.56;100.00;100184.81;5567332;32;34088;-71
2023/06/23 03:03:41;;;;;;;16.08;11.57;;;;;;;22.58;100.00;100181.88;5566324;32;34096;-71
2023/06/23 03:06:51;;;;;;;15.32;11.55;;;;;;;22.53;100.00;100175.34;5567065;32;33990;-71
2023/06/23 03:10:02;;;;;;;21.17;11.63;;;;;;;22.54;100.00;100178.88;5567225;32;33848;-71
2023/06/23 03:13:11;;;;;;;18.77;11.10;;;;;;;22.53;100.00;100190.75;5567093;32;33963;-71
2023/06/23 03:16:32;;;;;;;15.73;11.50;;;;;;;22.51;100.00;100193.69;5566917;32;33995;-71
2023/06/23 03:20:05;;;;;;;15.65;11.18;;;;;;;22.46;100.00;100196.31;5566323;32;34080;-71
2023/06/23 03:23:16;;;;;;;19.12;11.65;;;;;;;22.44;100.00;100200.34;5566940;32;34131;-71
2023/06/23 03:26:46;;;;;;;18.00;11.48;;;;;;;22.45;100.00;100197.41;5566634;31;34391;-71
2023/06/23 03:30:07;;;;;;;15.90;11.07;;;;;;;22.44;100.00;100198.47;5566869;32;34182;-71
2023/06/23 03:33:23;;;;;;;17.58;11.35;;;;;;;22.45;100.00;100207.41;5566643;32;34268;-71
2023/06/23 03:36:31;;;;;;;18.12;10.57;;;;;;;22.48;100.00;100212.31;5566895;32;34019;-71
2023/06/23 03:39:43;;;;;;;17.35;10.70;;;;;;;22.48;100.00;100220.41;5565952;32;34684;-71
2023/06/23 03:43:05;;;;;;;20.65;11.65;;;;;;;22.53;100.00;100232.12;5566755;32;35045;-71
2023/06/23 03:46:20;;;;;;;14.63;11.27;;;;;;;22.59;100.00;100221.38;5566528;32;34040;-73
2023/06/23 03:49:34;;;;;;;13.70;11.15;;;;;;;22.69;100.00;100216.91;5566576;32;34109;-72
2023/06/23 03:52:45;;;;;;;14.13;11.23;;;;;;;22.80;100.00;100210.56;5566421;32;33852;-72
2023/06/23 03:56:13;;;;;;;;;;;;;;;22.90;100.00;100218.00;5565641;32;35384;-72
2023/06/23 03:59:24;;;;;;;14.93;10.52;;;;;;;22.99;100.00;100212.97;5565550;32;34246;-72
2023/06/23 04:02:36;;;;;;;16.35;10.63;;;;;;;23.08;100.00;100233.13;5566545;32;33967;-72
2023/06/23 04:05:46;;;;;;;13.18;9.82;;;;;;;23.14;100.00;100230.19;5566463;32;34504;-73
2023/06/23 04:08:56;;;;;;;15.63;9.82;;;;;;;23.17;100.00;100232.41;5568515;31;34514;-72
2023/06/23 04:12:07;;;;;;;17.77;10.52;;;;;;;23.35;100.00;100240.19;5577099;31;34661;-73
2023/06/23 04:15:18;;;;;;;13.65;9.45;;;;;;;23.37;100.00;100245.34;5584326;31;34617;-72
2023/06/23 04:18:29;;;;;;;12.98;9.73;;;;;;;23.45;100.00;100236.78;5584713;31;34022;-72
2023/06/23 04:21:37;;;;;;;14.68;10.02;;;;;;;23.50;100.00;100227.91;5585951;31;34111;-72
2023/06/23 04:24:50;;;;;;;14.95;10.13;;;;;;;23.57;100.00;100229.34;5585669;31;34256;-73
2023/06/23 04:28:01;;;;;;;15.20;9.43;;;;;;;23.69;100.00;100219.16;5585623;31;34054;-72
2023/06/23 04:31:08;;;;;;;15.43;9.60;;;;;;;23.86;100.00;100221.75;5583841;31;34244;-73
2023/06/23 04:34:15;;;;;;;17.90;9.45;;;;;;;23.80;100.00;100218.16;5587794;31;34128;-72
2023/06/23 04:37:46;;;;;;;28.10;10.52;;;;;;;24.00;100.00;100222.94;5588029;31;34115;-73
2023/06/23 04:41:00;;;;;;;18.90;9.43;;;;;;;24.07;100.00;100230.81;5587680;31;33862;-73
2023/06/23 04:44:16;;;;;;;13.10;9.45;;;;;;;24.12;100.00;100230.84;5587983;31;35046;-73
2023/06/23 04:47:32;;;;;;;10.70;8.70;;;;;;;24.21;100.00;100226.63;5587969;31;34177;-74
2023/06/23 04:50:58;;;;;;;15.65;8.98;;;;;;;24.22;100.00;100210.09;5587950;31;34270;-73
2023/06/23 04:54:10;;;;;;;;;;;;;;;24.36;100.00;100215.88;5588056;31;35044;-73
2023/06/23 04:57:24;;;;;;;40.55;10.13;;;;;;;24.53;100.00;100215.72;5587898;31;34415;-72
2023/06/23 05:00:37;;;;;;;15.27;9.10;;;;;;;24.55;100.00;100208.91;5587747;31;33872;-73
2023/06/23 05:03:48;;;;;;;13.90;9.50;;;;;;;24.61;100.00;100218.72;5586926;31;34836;-73
2023/06/23 05:07:03;;;;;;;15.38;9.50;;;;;;;24.64;100.00;100210.06;5587511;31;33980;-73
2023/06/23 05:10:13;;;;;;;11.85;8.88;;;;;;;24.68;100.00;100205.75;5588146;31;34153;-73
2023/06/23 05:13:30;;;;;;;14.48;8.77;;;;;;;24.79;100.00;100211.19;5587305;31;34234;-72
2023/06/23 05:16:48;;;;;;;15.60;8.55;;;;;;;24.78;100.00;100215.00;5587501;31;34679;-72
2023/06/23 05:20:01;;;;;;;15.35;8.38;;;;;;;25.03;100.00;100217.84;5587282;31;34178;-72
2023/06/23 05:23:14;;;;;;;14.70;8.68;;;;;;;24.97;100.00;100225.16;5586684;31;34200;-75
2023/06/23 05:26:21;;;;;;;14.13;8.68;;;;;;;25.00;100.00;100227.34;5587393;31;33945;-73
2023/06/23 05:29:34;;;;;;;12.88;9.30;;;;;;;24.88;100.00;100218.62;5586761;31;34618;-73
2023/06/23 05:32:47;;;;;;;16.60;8.35;;;;;;;25.11;100.00;100228.19;5579562;31;34373;-73
2023/06/23 05:35:58;;;;;;;17.98;8.75;;;;;;;25.31;100.00;100230.16;5567490;32;34733;-72
2023/06/23 05:39:09;;;;;;;12.77;8.50;;;;;;;25.48;100.00;100220.66;5586457;31;33978;-72
2023/06/23 05:42:32;;;;;;;14.55;8.60;;;;;;;25.26;100.00;100216.56;5586490;31;35028;-72
2023/06/23 05:45:41;;;;;;;18.42;8.95;;;;;;;25.41;100.00;100222.03;5586552;31;34698;-71
2023/06/23 05:48:58;;;;;;;17.25;8.07;;;;;;;25.60;100.00;100225.88;5584805;31;33979;-71
2023/06/23 05:52:06;;;;;;;12.23;8.48;;;;;;;25.67;100.00;100223.69;5586832;31;35103;-71
2023/06/23 05:55:12;;;;;;;15.32;8.65;;;;;;;25.60;100.00;100220.44;5583091;31;33942;-71
2023/06/23 05:58:26;;;;;;;20.23;8.50;;;;;;;25.64;100.00;100221.53;5566843;32;34846;-70
2023/06/23 06:01:45;;;;;;;11.95;8.15;;;;;;;25.88;100.00;100213.66;5566815;32;33932;-71
2023/06/23 06:05:13;;;;;;;16.90;8.77;;;;;;;25.99;100.00;100218.00;5567674;31;35146;-70
2023/06/23 06:08:17;;;;;;;14.35;8.70;;;;;;;26.09;100.00;100214.47;5571799;31;34396;-71
2023/06/23 06:11:44;;;;;;;13.55;9.00;;;;;;;26.13;100.00;100210.09;5581371;31;34105;-70
2023/06/23 06:14:51;;;;;;;10.82;8.88;;;;;;;26.00;100.00;100197.09;5582352;31;34836;-70
2023/06/23 06:18:06;;;;;;;14.57;9.05;;;;;;;26.29;100.00;100198.12;5586544;31;34067;-69
2023/06/23 06:21:13;;;;;;;16.83;9.10;;;;;;;26.12;100.00;100187.53;5586990;31;35063;-70
2023/06/23 06:24:25;;;;;;;17.02;9.93;;;;;;;26.33;100.00;100185.63;5586546;31;35552;-70
2023/06/23 06:27:30;;;;;;;17.60;9.70;;;;;;;26.18;100.00;100178.28;5584240;31;34045;-70
2023/06/23 06:30:37;;;;;;;17.60;10.02;;;;;;;26.51;100.00;100159.72;5570856;31;34764;-70
2023/06/23 06:33:43;;;;;;;16.27;8.80;;;;;;;26.59;100.00;100168.09;5567296;31;34221;-71
2023/06/23 06:36:48;;;;;;;16.50;10.00;;;;;;;26.73;100.00;100174.56;5579661;31;34124;-70
2023/06/23 06:40:05;;;;;;;14.70;9.82;;;;;;;26.92;100.00;100165.81;5586814;31;34818;-70
2023/06/23 06:43:16;;;;;;;17.33;9.57;;;;;;;27.00;100.00;100179.66;5568486;31;34355;-70
2023/06/23 06:46:30;;;;;;;15.30;10.07;;;;;;;27.20;100.00;100171.38;5572010;31;33954;-71
2023/06/23 06:49:35;;;;;;;15.05;9.70;;;;;;;27.34;100.00;100174.28;5578601;31;34400;-70
2023/06/23 06:52:50;;;;;;;18.25;10.27;;;;;;;27.29;100.00;100177.03;5580752;31;34660;-71
2023/06/23 06:55:59;;;;;;;15.43;9.35;;;;;;;27.35;100.00;100165.00;5585794;31;34142;-71
2023/06/23 06:59:03;;;;;;;15.25;10.80;;;;;;;27.49;100.00;100162.50;5585922;31;33783;-71
2023/06/23 07:02:17;;;;;;;23.70;10.27;;;;;;;27.69;100.00;100165.06;5586250;31;34267;-70
2023/06/23 07:05:34;;;;;;;15.30;10.73;;;;;;;27.83;100.00;100154.28;5580537;31;34688;-70
2023/06/23 07:08:40;;;;;;;16.08;10.52;;;;;;;27.50;100.00;100156.72;5573409;31;34198;-71
2023/06/23 07:12:06;;;;;;;16.58;9.75;;;;;;;27.73;100.00;100160.66;5565954;32;34037;-71
2023/06/23 07:15:14;;;;;;;16.20;10.98;;;;;;;27.87;100.00;100167.06;5572458;31;34313;-71
2023/06/23 07:18:19;;;;;;;17.75;10.27;;;;;;;28.03;100.00;100165.00;5575168;31;34125;-70
2023/06/23 07:21:43;;;;;;;17.67;10.88;;;;;;;27.99;100.00;100158.47;5569661;31;35072;-71
2023/06/23 07:24:47;;;;;;;24.37;11.35;;;;;;;28.42;100.00;100164.84;5573115;31;34048;-71
2023/06/23 07:28:00;;;;;;;22.60;10.32;;;;;;;29.04;100.00;100163.00;5557118;31;33925;-70
2023/06/23 07:31:08;;;;;;;21.15;10.95;;;;;;;29.46;97.67;100153.94;5568663;31;34816;-69
2023/06/23 07:34:30;;;;;;;22.95;10.60;;;;;;;29.32;98.61;100160.16;5568205;31;32707;-69
2023/06/23 07:37:38;;;;;;;23.17;13.55;;;;;;;29.63;94.01;100165.94;5566416;32;33807;-71
2023/06/23 07:40:44;;;;;;;30.83;12.20;;;;;;;29.59;91.54;100162.16;5566525;31;34062;-70
2023/06/23 07:43:53;;;;;;;18.98;10.52;;;;;;;29.79;94.45;100174.69;5579584;31;34174;-71
2023/06/23 07:47:17;;;;;;;15.93;10.30;;;;;;;30.54;87.07;100169.78;5584366;31;35221;-72
2023/06/23 07:50:26;;;;;;;16.12;10.07;;;;;;;31.09;80.42;100161.50;5585757;31;34931;-72
2023/06/23 07:53:50;;;;;;;25.30;10.10;;;;;;;31.55;75.99;100160.41;5585375;31;35117;-72
2023/06/23 07:57:13;;;;;;;22.62;10.15;;;;;;;32.21;74.52;100159.53;5585857;31;34695;-71
2023/06/23 08:00:20;;;;;;;58.42;14.75;;;;;;;32.48;72.74;100162.09;5585664;31;34068;-71
2023/06/23 08:03:29;;;;;;;21.00;9.95;;;;;;;33.00;69.68;100154.78;5584751;31;34731;-71
2023/06/23 08:06:37;;;;;;;27.13;10.15;;;;;;;33.72;65.22;100154.12;5585808;31;34190;-72
2023/06/23 08:09:44;;;;;;;20.02;9.38;;;;;;;34.41;59.30;100151.97;5585375;31;34190;-71
2023/06/23 08:12:59;;;;;;;19.80;10.60;;;;;;;34.07;61.49;100152.09;5585417;31;34249;-72
2023/06/23 08:16:06;;;;;;;23.10;10.27;;;;;;;35.24;57.57;100154.88;5584384;31;34751;-72
2023/06/23 08:19:14;;;;;;;19.15;9.93;;;;;;;33.00;63.39;100148.47;5585515;31;34145;-72
2023/06/23 08:22:30;;;;;;;16.40;9.05;;;;;;;34.23;59.50;100144.12;5570164;31;36459;-72
2023/06/23 08:25:39;;;;;;;20.48;10.40;;;;;;;34.80;57.40;100147.22;5565626;32;34063;-72
2023/06/23 08:28:49;;;;;;;13.68;9.48;;;;;;;34.86;54.56;100154.94;5565838;32;33793;-71
2023/06/23 08:31:52;;;;;;;13.80;9.68;;;;;;;35.10;53.19;100154.28;5565375;32;34259;-73
2023/06/23 08:34:56;;;;;;;15.48;10.02;;;;;;;34.64;55.87;100148.91;5565322;32;34195;-74
2023/06/23 08:38:16;;;;;;;16.25;10.10;;;;;;;33.81;57.84;100146.66;5564485;32;34152;-72
2023/06/23 08:41:34;;;;;;;20.15;9.90;;;;;;;35.33;53.78;100129.16;5565427;32;35061;-72
2023/06/23 08:44:43;;;;;;;21.55;9.98;;;;;;;35.92;52.21;100140.75;5566345;31;34801;-74
2023/06/23 08:47:58;;;;;;;21.15;9.70;;;;;;;35.59;51.25;100144.28;5567996;31;34208;-72
2023/06/23 08:51:06;;;;;;;17.42;9.48;;;;;;;36.61;49.17;100140.69;5570930;31;34042;-72
2023/06/23 08:54:14;;;;;;;;;;;;;;;35.92;52.36;100144.31;5585154;31;34093;-73
2023/06/23 08:57:23;;;;;;;18.25;9.43;;;;;;;36.65;48.58;100146.34;5584827;31;34414;-73
2023/06/23 09:00:29;;;;;;;24.73;10.23;;;;;;;36.85;47.65;100145.34;5584931;31;35021;-72
2023/06/23 09:03:39;;;;;;;17.70;9.52;;;;;;;37.79;46.53;100141.00;5583803;31;35032;-72
2023/06/23 09:06:47;;;;;;;17.83;9.55;;;;;;;36.51;48.71;100144.69;5583899;31;34367;-71
2023/06/23 09:09:55;;;;;;;18.55;9.82;;;;;;;37.10;46.85;100148.91;5584590;31;34399;-72
2023/06/23 09:13:20;;;;;;;18.60;10.02;;;;;;;36.97;48.71;100142.56;5572197;31;34201;-72
2023/06/23 09:16:31;;;;;;;21.35;9.75;;;;;;;38.36;45.64;100152.72;5566355;32;34794;-72
2023/06/23 09:19:38;;;;;;;17.17;9.48;;;;;;;36.94;45.39;100157.91;5567818;32;34143;-74
2023/06/23 09:22:44;;;;;;;27.03;11.67;;;;;;;37.99;43.78;100150.25;5567755;32;33877;-72
2023/06/23 09:25:50;;;;;;;20.12;9.13;;;;;;;38.39;42.85;100149.25;5566795;32;34161;-71
2023/06/23 09:29:22;;;;;;;17.67;9.57;;;;;;;39.02;42.44;100152.72;5573924;31;35175;-73
2023/06/23 09:32:32;;;;;;;15.05;8.57;;;;;;;38.52;41.31;100157.12;5589469;31;33834;-73
2023/06/23 09:35:44;;;;;;;21.52;9.65;;;;;;;39.23;41.02;100155.94;5587273;31;34711;-72
2023/06/23 09:38:52;;;;;;;15.23;9.00;;;;;;;39.23;40.25;100149.56;5587293;31;33862;-71
2023/06/23 09:41:57;;;;;;;19.75;8.98;;;;;;;38.39;42.05;100146.47;5587213;31;34161;-72
2023/06/23 09:45:03;;;;;;;16.48;9.48;;;;;;;38.66;42.91;100149.13;5589896;31;34272;-73
2023/06/23 09:48:28;;;;;;;21.52;9.25;;;;;;;38.81;41.50;100155.00;5574420;31;35402;-73
2023/06/23 09:51:54;;;;;;;24.83;9.50;;;;;;;39.82;40.39;100160.31;5586712;31;34278;-71
2023/06/23 09:55:05;;;;;;;23.50;9.32;;;;;;;38.81;40.54;100164.12;5587162;31;34094;-72
2023/06/23 09:58:10;;;;;;;18.17;8.63;;;;;;;40.30;38.10;100162.37;5554196;32;34564;-72
2023/06/23 10:01:17;;;;;;;20.95;8.65;;;;;;;39.48;38.74;100159.25;5567411;32;34559;-70
2023/06/23 10:04:28;;;;;;;24.60;9.10;;;;;;;39.77;40.13;100163.38;5568163;32;34823;-72
2023/06/23 10:07:34;;;;;;;13.43;9.50;;;;;;;37.83;41.08;100163.25;5567357;32;34934;-72
2023/06/23 10:10:46;;;;;;;22.62;9.45;;;;;;;37.81;42.73;100160.03;5567240;32;34920;-71
2023/06/23 10:13:49;;;;;;;18.15;9.48;;;;;;;36.24;46.64;100155.63;5567495;32;34206;-71
2023/06/23 10:16:58;;;;;;;25.70;10.02;;;;;;;35.80;47.43;100143.47;5567151;32;33995;-71
2023/06/23 10:20:04;;;;;;;28.17;10.70;;;;;;;35.60;48.74;100143.16;5567167;32;34382;-70
2023/06/23 10:23:08;;;;;;;19.95;9.95;;;;;;;35.26;48.94;100137.97;5573991;31;34554;-72
2023/06/23 10:26:13;;;;;;;20.40;9.25;;;;;;;36.47;46.77;100129.97;5585832;31;34766;-72
2023/06/23 10:29:21;;;;;;;15.85;9.43;;;;;;;39.05;40.47;100141.69;5587019;31;34005;-72
2023/06/23 10:32:34;;;;;;;16.60;8.52;;;;;;;40.83;37.18;100137.34;5586732;31;34321;-71
2023/06/23 10:35:39;;;;;;;21.27;8.43;;;;;;;38.74;40.03;100146.50;5583122;31;34749;-71
2023/06/23 10:38:46;;;;;;;26.08;9.88;;;;;;;41.69;35.92;100140.00;5576056;31;34115;-71
2023/06/23 10:41:58;;;;;;;18.60;9.77;;;;;;;41.90;36.18;100142.22;5577379;31;34111;-71
2023/06/23 10:45:01;;;;;;;25.55;10.20;;;;;;;40.49;37.85;100141.19;5577193;31;34243;-71
2023/06/23 10:48:05;;;;;;;20.70;10.32;;;;;;;37.57;43.25;100138.81;5575445;31;33758;-70
2023/06/23 10:51:10;;;;;;;24.00;11.43;;;;;;;35.55;48.31;100126.00;5576425;31;34815;-69
2023/06/23 10:54:26;;;;;;;17.65;11.02;;;;;;;34.19;52.70;100123.88;5575935;31;33832;-71
2023/06/23 10:57:33;;;;;;;18.85;10.88;;;;;;;35.07;52.24;100129.34;5575016;31;34729;-70
2023/06/23 11:00:43;;;;;;;24.35;11.38;;;;;;;37.21;47.11;100119.59;5575894;31;34724;-70
2023/06/23 11:03:51;;;;;;;19.40;10.47;;;;;;;39.01;42.12;100112.28;5577152;31;33685;-70
2023/06/23 11:07:07;;;;;;;23.73;11.12;;;;;;;40.20;39.58;100112.16;5572725;31;34795;-69
2023/06/23 11:10:10;;;;;;;19.95;10.75;;;;;;;40.97;37.46;100109.69;5577929;31;34679;-70
2023/06/23 11:13:14;;;;;;;19.55;10.35;;;;;;;38.71;42.17;100106.47;5586526;31;33808;-70
2023/06/23 11:16:30;;;;;;;16.98;10.13;;;;;;;40.63;38.30;100100.50;5586562;31;34692;-69
2023/06/23 11:19:35;;;;;;;21.67;10.80;;;;;;;41.84;36.44;100099.94;5586216;31;34721;-69
2023/06/23 11:22:54;;;;;;;22.48;9.85;;;;;;;40.14;37.68;100097.75;5574668;31;34463;-70
2023/06/23 11:25:59;;;;;;;24.80;10.13;;;;;;;41.87;36.00;100104.00;5566323;32;34030;-73
2023/06/23 11:29:10;;;;;;;16.30;10.15;;;;;;;40.04;37.87;100092.03;5566722;32;34693;-72
2023/06/23 11:32:14;;;;;;;27.30;10.27;;;;;;;42.36;34.96;100086.88;5566877;32;34166;-71
2023/06/23 11:35:18;;;;;;;19.85;10.30;;;;;;;42.42;34.98;100088.88;5575453;31;34059;-72
2023/06/23 11:38:22;;;;;;;24.98;10.00;;;;;;;42.22;34.42;100093.09;5565801;32;34195;-71
2023/06/23 11:41:31;;;;;;;20.55;9.25;;;;;;;40.55;36.41;100086.88;5566577;32;34040;-71
2023/06/23 11:44:37;;;;;;;22.87;10.70;;;;;;;41.11;36.07;100093.19;5566786;32;34916;-71
2023/06/23 11:47:40;;;;;;;24.75;11.10;;;;;;;38.64;39.13;100078.56;5566657;32;34697;-73
2023/06/23 11:50:45;;;;;;;14.38;10.48;;;;;;;38.13;40.58;100080.53;5565678;32;34362;-71
2023/06/23 11:53:51;;;;;;;22.67;11.15;;;;;;;38.82;41.39;100070.63;5566709;32;34068;-72
2023/06/23 11:57:04;;;;;;;24.75;11.07;;;;;;;40.62;36.94;100073.88;5566187;32;34785;-73
2023/06/23 12:00:11;;;;;;;22.00;10.00;;;;;;;41.32;35.47;100064.00;5566349;32;34841;-72
2023/06/23 12:03:16;;;;;;;16.48;9.75;;;;;;;42.55;34.56;100069.84;5566137;32;32839;-73
2023/06/23 12:06:23;;;;;;;23.20;11.12;;;;;;;43.71;32.49;100066.66;5566156;32;34809;-72
2023/06/23 12:09:27;;;;;;;52.17;11.82;;;;;;;41.55;35.94;100054.31;5566431;32;34055;-70
2023/06/23 12:12:32;;;;;;;14.52;10.25;;;;;;;41.09;37.92;100048.28;5565513;32;34764;-71
2023/06/23 12:15:37;;;;;;;15.13;9.82;;;;;;;39.76;39.81;100039.56;5566188;32;34223;-69
2023/06/23 12:18:45;;;;;;;17.27;9.95;;;;;;;41.91;36.18;100044.31;5566097;32;34011;-69
2023/06/23 12:21:49;;;;;;;14.50;10.15;;;;;;;40.23;38.60;100036.38;5566066;32;34085;-70
2023/06/23 12:24:55;;;;;;;18.05;9.57;;;;;;;41.40;38.14;100041.41;5565961;32;34493;-72
2023/06/23 12:27:58;;;;;;;21.05;10.10;;;;;;;40.61;37.79;100021.44;5565258;32;34110;-72
2023/06/23 12:31:04;;;;;;;27.87;9.50;;;;;;;42.25;36.02;100022.63;5565655;32;33888;-71
2023/06/23 12:34:10;;;;;;;17.10;9.23;;;;;;;44.10;33.06;100021.91;5565116;32;34754;-71
2023/06/23 12:37:16;;;;;;;23.08;9.60;;;;;;;44.38;32.43;100023.87;5565549;32;34183;-71
2023/06/23 12:40:32;;;;;;;17.00;9.93;;;;;;;40.80;37.52;100016.50;5565542;32;34143;-71
2023/06/23 12:43:36;;;;;;;16.30;9.52;;;;;;;39.74;39.79;100016.91;5565324;32;34054;-72
2023/06/23 12:46:41;;;;;;;21.83;10.05;;;;;;;41.25;36.07;100019.41;5565444;32;34123;-72
2023/06/23 12:49:45;;;;;;;17.05;9.27;;;;;;;39.74;39.16;100023.25;5566254;32;34284;-71
2023/06/23 12:52:51;;;;;;;18.65;9.82;;;;;;;39.11;39.82;100018.16;5568079;32;34463;-71
2023/06/23 12:55:55;;;;;;;19.00;10.05;;;;;;;38.29;42.15;100015.59;5570107;31;34817;-72
2023/06/23 12:58:58;;;;;;;16.67;10.18;;;;;;;36.85;45.30;100009.87;5579900;31;34809;-73
2023/06/23 13:02:01;;;;;;;23.92;10.35;;;;;;;35.41;48.54;100013.19;5587763;31;34377;-72
2023/06/23 13:05:05;;;;;;;19.52;10.02;;;;;;;34.82;51.18;99999.66;5587629;31;34197;-72
2023/06/23 13:08:13;;;;;;;19.90;10.55;;;;;;;34.25;54.83;100001.38;5587370;31;34736;-72
2023/06/23 13:11:19;;;;;;;27.27;10.77;;;;;;;36.19;50.52;100004.75;5578613;31;35270;-70
2023/06/23 13:14:25;;;;;;;25.55;10.95;;;;;;;37.55;46.79;100018.53;5578642;31;34842;-71
2023/06/23 13:17:32;;;;;;;19.30;10.93;;;;;;;35.90;50.91;100019.59;5580368;31;34162;-70
2023/06/23 13:20:36;;;;;;;20.58;10.82;;;;;;;34.42;55.33;100012.31;5573222;31;34187;-71
2023/06/23 13:23:42;;;;;;;22.85;11.05;;;;;;;35.49;52.15;100005.94;5578529;31;33998;-72
2023/06/23 13:26:47;;;;;;;31.05;10.85;;;;;;;39.31;43.74;100007.03;5578677;31;34375;-72
2023/06/23 13:29:53;;;;;;;25.65;10.45;;;;;;;41.56;37.94;100021.69;5569319;31;34220;-71
2023/06/23 13:32:57;;;;;;;20.62;10.00;;;;;;;40.67;39.28;100006.78;5577600;31;33907;-70
2023/06/23 13:36:03;;;;;;;20.08;10.23;;;;;;;39.44;42.53;100009.28;5575576;31;34055;-72
2023/06/23 13:39:08;;;;;;;21.12;9.77;;;;;;;39.88;41.29;100017.97;5567577;32;33917;-72
2023/06/23 13:42:12;;;;;;;20.45;9.73;;;;;;;40.67;39.38;100022.69;5567097;32;34017;-72
2023/06/23 13:45:16;;;;;;;23.50;9.77;;;;;;;40.44;40.06;100021.94;5568106;32;33840;-72
2023/06/23 13:48:20;;;;;;;20.05;9.10;;;;;;;40.57;39.34;100026.13;5567676;32;34116;-74
2023/06/23 13:51:22;;;;;;;21.62;9.18;;;;;;;41.27;38.28;100030.94;5567500;32;34398;-70
2023/06/23 13:54:27;;;;;;;18.33;9.50;;;;;;;40.02;39.68;100033.25;5568022;32;34084;-72
2023/06/23 13:57:33;;;;;;;19.73;8.55;;;;;;;38.59;43.01;100031.72;5567431;32;33842;-69
2023/06/23 14:00:39;;;;;;;20.45;9.38;;;;;;;37.41;45.06;100021.72;5566402;32;33810;-72
2023/06/23 14:03:45;;;;;;;18.92;8.75;;;;;;;37.30;44.95;100017.88;5566292;32;34172;-73
2023/06/23 14:06:53;;;;;;;17.03;8.07;;;;;;;35.91;48.01;100017.63;5567132;32;34388;-69
2023/06/23 14:09:58;;;;;;;14.82;7.95;;;;;;;33.88;53.44;100025.06;5567062;32;34661;-70
2023/06/23 14:13:07;;;;;;;13.75;7.47;;;;;;;32.89;56.32;100009.75;5566090;32;33981;-70
2023/06/23 14:16:16;;;;;;;26.50;7.85;;;;;;;32.29;58.74;100022.28;5583514;31;34107;-68
2023/06/23 14:19:22;;;;;;;24.23;7.43;;;;;;;31.93;59.86;100029.94;5586431;31;32665;-68
2023/06/23 14:22:28;;;;;;;22.40;7.00;;;;;;;31.71;60.96;100010.81;5585158;31;33921;-69
2023/06/23 14:25:33;;;;;;;14.45;5.87;;;;;;;33.40;56.25;100017.13;5583102;31;33689;-69